sensor_id;sensor_type;location;lat;lon;timestamp;P1;durP1;ratioP1;P2;durP2;ratioP2
49764;SDS011;35657;51.204;-4.130;2023-05-10T00:01:47;24.83;;;3.97;;
49764;SDS011;35657;51.204;-4.130;2023-05-10T00:04:13;30.13;;;4.03;;
49764;SDS011;35657;51.204;-4.130;2023-05-10T00:06:39;14.73;;;3.28;;
49764;SDS011;35657;51.204;-4.130;2023-05-10T00:09:05;28.40;;;4.60;;
49764;SDS011;35657;51.204;-4.130;2023-05-10T00:11:31;15.98;;;3.47;;
49764;SDS011;35657;51.204;-4.130;2023-05-10T00:13:57;28.35;;;4.45;;
49764;SDS011;35657;51.204;-4.130;2023-05-10T00:16:23;9.35;;;3.10;;
49764;SDS011;35657;51.204;-4.130;2023-05-10T00:18:48;17.95;;;3.22;;
49764;SDS011;35657;51.204;-4.130;2023-05-10T00:21:14;19.30;;;4.18;;
49764;SDS011;35657;51.204;-4.130;2023-05-10T00:23:40;18.08;;;3.13;;
49764;SDS011;35657;51.204;-4.130;2023-05-10T00:26:05;18.92;;;3.53;;
49764;SDS011;35657;51.204;-4.130;2023-05-10T00:28:31;18.88;;;4.45;;
49764;SDS011;35657;51.204;-4.130;2023-05-10T00:30:57;26.08;;;3.53;;
49764;SDS011;35657;51.204;-4.130;2023-05-10T00:33:22;28.08;;;4.97;;
49764;SDS011;35657;51.204;-4.130;2023-05-10T00:35:48;18.48;;;4.80;;
49764;SDS011;35657;51.204;-4.130;2023-05-10T00:38:14;13.43;;;3.50;;
49764;SDS011;35657;51.204;-4.130;2023-05-10T00:40:39;17.95;;;4.03;;
49764;SDS011;35657;51.204;-4.130;2023-05-10T00:43:05;19.83;;;3.92;;
49764;SDS011;35657;51.204;-4.130;2023-05-10T00:45:32;20.30;;;3.55;;
49764;SDS011;35657;51.204;-4.130;2023-05-10T00:48:03;14.73;;;4.35;;
49764;SDS011;35657;51.204;-4.130;2023-05-10T00:50:30;14.02;;;2.97;;
49764;SDS011;35657;51.204;-4.130;2023-05-10T00:52:57;26.67;;;4.03;;
49764;SDS011;35657;51.204;-4.130;2023-05-10T00:55:24;27.08;;;3.58;;
49764;SDS011;35657;51.204;-4.130;2023-05-10T00:57:50;14.20;;;2.67;;
49764;SDS011;35657;51.204;-4.130;2023-05-10T01:00:18;18.48;;;3.95;;
49764;SDS011;35657;51.204;-4.130;2023-05-10T01:02:46;21.00;;;4.38;;
49764;SDS011;35657;51.204;-4.130;2023-05-10T01:05:13;19.73;;;4.07;;
49764;SDS011;35657;51.204;-4.130;2023-05-10T01:07:39;21.85;;;3.63;;
49764;SDS011;35657;51.204;-4.130;2023-05-10T01:10:05;14.90;;;4.45;;
49764;SDS011;35657;51.204;-4.130;2023-05-10T01:12:35;17.40;;;2.83;;
49764;SDS011;35657;51.204;-4.130;2023-05-10T01:15:05;36.00;;;5.82;;
49764;SDS011;35657;51.204;-4.130;2023-05-10T01:17:33;20.08;;;3.47;;
49764;SDS011;35657;51.204;-4.130;2023-05-10T01:20:00;18.92;;;3.08;;
49764;SDS011;35657;51.204;-4.130;2023-05-10T01:31:18;10.45;;;2.70;;
49764;SDS011;35657;51.204;-4.130;2023-05-10T01:33:46;24.98;;;3.92;;
49764;SDS011;35657;51.204;-4.130;2023-05-10T01:36:35;10.65;;;2.53;;
49764;SDS011;35657;51.204;-4.130;2023-05-10T01:39:20;20.48;;;2.90;;
49764;SDS011;35657;51.204;-4.130;2023-05-10T01:41:52;23.98;;;3.20;;
49764;SDS011;35657;51.204;-4.130;2023-05-10T01:44:28;19.70;;;4.85;;
49764;SDS011;35657;51.204;-4.130;2023-05-10T01:47:20;12.82;;;3.50;;
49764;SDS011;35657;51.204;-4.130;2023-05-10T01:49:53;15.18;;;2.88;;
49764;SDS011;35657;51.204;-4.130;2023-05-10T01:52:22;16.20;;;4.40;;
49764;SDS011;35657;51.204;-4.130;2023-05-10T01:54:55;15.20;;;2.97;;
49764;SDS011;35657;51.204;-4.130;2023-05-10T01:57:25;20.55;;;3.75;;
49764;SDS011;35657;51.204;-4.130;2023-05-10T01:59:52;17.55;;;3.78;;
49764;SDS011;35657;51.204;-4.130;2023-05-10T02:02:20;13.20;;;2.47;;
49764;SDS011;35657;51.204;-4.130;2023-05-10T02:04:47;17.55;;;3.28;;
49764;SDS011;35657;51.204;-4.130;2023-05-10T02:07:15;13.73;;;5.35;;
49764;SDS011;35657;51.204;-4.130;2023-05-10T02:09:42;14.90;;;2.78;;
49764;SDS011;35657;51.204;-4.130;2023-05-10T02:12:12;21.20;;;2.65;;
49764;SDS011;35657;51.204;-4.130;2023-05-10T02:14:40;14.98;;;2.80;;
49764;SDS011;35657;51.204;-4.130;2023-05-10T02:17:08;17.98;;;4.32;;
49764;SDS011;35657;51.204;-4.130;2023-05-10T02:19:36;21.30;;;3.72;;
49764;SDS011;35657;51.204;-4.130;2023-05-10T02:22:05;23.02;;;3.50;;
49764;SDS011;35657;51.204;-4.130;2023-05-10T02:24:33;13.32;;;2.30;;
49764;SDS011;35657;51.204;-4.130;2023-05-10T02:27:01;10.27;;;2.90;;
49764;SDS011;35657;51.204;-4.130;2023-05-10T02:29:28;13.65;;;2.63;;
49764;SDS011;35657;51.204;-4.130;2023-05-10T02:31:56;11.10;;;2.85;;
49764;SDS011;35657;51.204;-4.130;2023-05-10T02:34:23;10.80;;;2.80;;
49764;SDS011;35657;51.204;-4.130;2023-05-10T02:36:52;14.25;;;3.60;;
49764;SDS011;35657;51.204;-4.130;2023-05-10T02:39:18;12.43;;;3.33;;
49764;SDS011;35657;51.204;-4.130;2023-05-10T02:41:46;20.30;;;4.80;;
49764;SDS011;35657;51.204;-4.130;2023-05-10T02:44:14;14.40;;;3.47;;
49764;SDS011;35657;51.204;-4.130;2023-05-10T02:46:42;14.35;;;2.67;;
49764;SDS011;35657;51.204;-4.130;2023-05-10T02:49:08;14.13;;;2.80;;
49764;SDS011;35657;51.204;-4.130;2023-05-10T02:51:35;18.98;;;3.13;;
49764;SDS011;35657;51.204;-4.130;2023-05-10T02:54:04;16.75;;;2.90;;
49764;SDS011;35657;51.204;-4.130;2023-05-10T02:56:35;22.90;;;2.90;;
49764;SDS011;35657;51.204;-4.130;2023-05-10T02:59:05;10.93;;;1.88;;
49764;SDS011;35657;51.204;-4.130;2023-05-10T03:01:30;13.63;;;3.63;;
49764;SDS011;35657;51.204;-4.130;2023-05-10T03:03:56;16.85;;;3.53;;
49764;SDS011;35657;51.204;-4.130;2023-05-10T03:06:22;9.93;;;2.33;;
49764;SDS011;35657;51.204;-4.130;2023-05-10T03:08:47;20.73;;;3.25;;
49764;SDS011;35657;51.204;-4.130;2023-05-10T03:16:40;16.25;;;2.08;;
49764;SDS011;35657;51.204;-4.130;2023-05-10T03:21:49;12.27;;;2.22;;
49764;SDS011;35657;51.204;-4.130;2023-05-10T03:24:17;9.02;;;2.35;;
49764;SDS011;35657;51.204;-4.130;2023-05-10T03:26:45;20.17;;;2.67;;
49764;SDS011;35657;51.204;-4.130;2023-05-10T03:29:12;16.90;;;2.58;;
49764;SDS011;35657;51.204;-4.130;2023-05-10T03:31:40;11.95;;;2.53;;
49764;SDS011;35657;51.204;-4.130;2023-05-10T03:34:06;10.27;;;2.25;;
49764;SDS011;35657;51.204;-4.130;2023-05-10T03:36:32;9.93;;;2.70;;
49764;SDS011;35657;51.204;-4.130;2023-05-10T03:38:58;11.25;;;2.75;;
49764;SDS011;35657;51.204;-4.130;2023-05-10T03:41:23;15.63;;;2.63;;
49764;SDS011;35657;51.204;-4.130;2023-05-10T03:43:50;22.15;;;3.72;;
49764;SDS011;35657;51.204;-4.130;2023-05-10T03:46:16;19.58;;;2.58;;
49764;SDS011;35657;51.204;-4.130;2023-05-10T03:48:42;10.63;;;2.17;;
49764;SDS011;35657;51.204;-4.130;2023-05-10T03:51:07;21.20;;;3.78;;
49764;SDS011;35657;51.204;-4.130;2023-05-10T03:53:33;13.85;;;2.75;;
49764;SDS011;35657;51.204;-4.130;2023-05-10T03:55:59;12.43;;;3.45;;
49764;SDS011;35657;51.204;-4.130;2023-05-10T03:58:24;13.30;;;3.20;;
49764;SDS011;35657;51.204;-4.130;2023-05-10T04:00:51;11.25;;;2.92;;
49764;SDS011;35657;51.204;-4.130;2023-05-10T04:03:17;19.60;;;3.25;;
49764;SDS011;35657;51.204;-4.130;2023-05-10T04:05:43;17.85;;;2.85;;
49764;SDS011;35657;51.204;-4.130;2023-05-10T04:08:08;19.08;;;2.97;;
49764;SDS011;35657;51.204;-4.130;2023-05-10T04:10:34;23.73;;;4.13;;
49764;SDS011;35657;51.204;-4.130;2023-05-10T04:13:00;18.42;;;2.53;;
49764;SDS011;35657;51.204;-4.130;2023-05-10T04:15:26;14.52;;;2.50;;
49764;SDS011;35657;51.204;-4.130;2023-05-10T04:17:51;13.48;;;2.95;;
49764;SDS011;35657;51.204;-4.130;2023-05-10T04:20:18;26.45;;;4.38;;
49764;SDS011;35657;51.204;-4.130;2023-05-10T04:22:44;24.45;;;3.22;;
49764;SDS011;35657;51.204;-4.130;2023-05-10T04:25:10;11.23;;;3.33;;
49764;SDS011;35657;51.204;-4.130;2023-05-10T04:27:35;17.80;;;3.05;;
49764;SDS011;35657;51.204;-4.130;2023-05-10T04:30:01;25.17;;;3.33;;
49764;SDS011;35657;51.204;-4.130;2023-05-10T04:32:28;12.35;;;2.03;;
49764;SDS011;35657;51.204;-4.130;2023-05-10T04:34:54;18.90;;;2.67;;
49764;SDS011;35657;51.204;-4.130;2023-05-10T04:37:19;16.13;;;3.30;;
49764;SDS011;35657;51.204;-4.130;2023-05-10T04:39:46;19.38;;;3.55;;
49764;SDS011;35657;51.204;-4.130;2023-05-10T04:42:12;20.15;;;3.33;;
49764;SDS011;35657;51.204;-4.130;2023-05-10T04:44:39;18.42;;;3.50;;
49764;SDS011;35657;51.204;-4.130;2023-05-10T04:47:05;16.35;;;3.83;;
49764;SDS011;35657;51.204;-4.130;2023-05-10T04:49:31;11.02;;;3.50;;
49764;SDS011;35657;51.204;-4.130;2023-05-10T04:51:57;18.35;;;3.90;;
49764;SDS011;35657;51.204;-4.130;2023-05-10T04:54:23;26.48;;;3.90;;
49764;SDS011;35657;51.204;-4.130;2023-05-10T04:56:48;9.57;;;2.53;;
49764;SDS011;35657;51.204;-4.130;2023-05-10T04:59:14;10.50;;;1.40;;
49764;SDS011;35657;51.204;-4.130;2023-05-10T05:01:40;16.52;;;3.00;;
49764;SDS011;35657;51.204;-4.130;2023-05-10T05:04:05;13.48;;;2.50;;
49764;SDS011;35657;51.204;-4.130;2023-05-10T05:06:31;10.43;;;2.35;;
49764;SDS011;35657;51.204;-4.130;2023-05-10T05:08:57;17.73;;;3.42;;
49764;SDS011;35657;51.204;-4.130;2023-05-10T05:11:23;9.70;;;2.38;;
49764;SDS011;35657;51.204;-4.130;2023-05-10T05:13:49;15.43;;;3.08;;
49764;SDS011;35657;51.204;-4.130;2023-05-10T05:16:14;17.83;;;3.42;;
49764;SDS011;35657;51.204;-4.130;2023-05-10T05:18:40;20.35;;;4.30;;
49764;SDS011;35657;51.204;-4.130;2023-05-10T05:21:24;8.48;;;2.72;;
49764;SDS011;35657;51.204;-4.130;2023-05-10T05:23:51;13.77;;;3.50;;
49764;SDS011;35657;51.204;-4.130;2023-05-10T05:26:17;19.25;;;3.10;;
49764;SDS011;35657;51.204;-4.130;2023-05-10T05:28:42;16.67;;;4.18;;
49764;SDS011;35657;51.204;-4.130;2023-05-10T05:31:08;17.77;;;3.35;;
49764;SDS011;35657;51.204;-4.130;2023-05-10T05:33:34;14.10;;;3.78;;
49764;SDS011;35657;51.204;-4.130;2023-05-10T05:36:00;13.40;;;2.88;;
49764;SDS011;35657;51.204;-4.130;2023-05-10T05:38:26;24.33;;;4.13;;
49764;SDS011;35657;51.204;-4.130;2023-05-10T05:40:52;15.48;;;3.10;;
49764;SDS011;35657;51.204;-4.130;2023-05-10T05:43:18;16.65;;;1.88;;
49764;SDS011;35657;51.204;-4.130;2023-05-10T05:45:43;15.65;;;3.17;;
49764;SDS011;35657;51.204;-4.130;2023-05-10T05:48:09;29.98;;;9.02;;
49764;SDS011;35657;51.204;-4.130;2023-05-10T05:50:35;29.83;;;11.45;;
49764;SDS011;35657;51.204;-4.130;2023-05-10T05:53:00;22.13;;;5.13;;
49764;SDS011;35657;51.204;-4.130;2023-05-10T05:55:26;20.27;;;5.57;;
49764;SDS011;35657;51.204;-4.130;2023-05-10T05:57:52;31.00;;;6.05;;
49764;SDS011;35657;51.204;-4.130;2023-05-10T06:00:18;27.13;;;5.70;;
49764;SDS011;35657;51.204;-4.130;2023-05-10T06:02:44;18.00;;;5.25;;
49764;SDS011;35657;51.204;-4.130;2023-05-10T06:05:10;15.63;;;5.35;;
49764;SDS011;35657;51.204;-4.130;2023-05-10T06:07:35;11.63;;;4.05;;
49764;SDS011;35657;51.204;-4.130;2023-05-10T06:10:01;21.38;;;5.00;;
49764;SDS011;35657;51.204;-4.130;2023-05-10T06:12:27;25.98;;;4.57;;
49764;SDS011;35657;51.204;-4.130;2023-05-10T06:14:53;12.98;;;3.45;;
49764;SDS011;35657;51.204;-4.130;2023-05-10T06:17:19;12.20;;;6.45;;
49764;SDS011;35657;51.204;-4.130;2023-05-10T06:19:44;17.55;;;4.07;;
49764;SDS011;35657;51.204;-4.130;2023-05-10T06:22:10;12.35;;;2.50;;
49764;SDS011;35657;51.204;-4.130;2023-05-10T06:24:36;20.33;;;4.25;;
49764;SDS011;35657;51.204;-4.130;2023-05-10T06:27:01;23.25;;;4.82;;
49764;SDS011;35657;51.204;-4.130;2023-05-10T06:29:27;16.08;;;2.30;;
49764;SDS011;35657;51.204;-4.130;2023-05-10T06:31:53;25.15;;;3.60;;
49764;SDS011;35657;51.204;-4.130;2023-05-10T06:34:19;19.25;;;3.53;;
49764;SDS011;35657;51.204;-4.130;2023-05-10T06:36:45;12.82;;;3.03;;
49764;SDS011;35657;51.204;-4.130;2023-05-10T06:39:10;27.83;;;3.42;;
49764;SDS011;35657;51.204;-4.130;2023-05-10T06:41:37;19.15;;;4.75;;
49764;SDS011;35657;51.204;-4.130;2023-05-10T06:44:03;9.73;;;2.60;;
49764;SDS011;35657;51.204;-4.130;2023-05-10T06:46:29;15.32;;;3.83;;
49764;SDS011;35657;51.204;-4.130;2023-05-10T06:48:54;17.90;;;3.10;;
49764;SDS011;35657;51.204;-4.130;2023-05-10T06:51:20;25.00;;;4.45;;
49764;SDS011;35657;51.204;-4.130;2023-05-10T06:53:46;17.55;;;3.22;;
49764;SDS011;35657;51.204;-4.130;2023-05-10T06:56:12;14.88;;;2.85;;
49764;SDS011;35657;51.204;-4.130;2023-05-10T06:58:38;11.60;;;1.98;;
49764;SDS011;35657;51.204;-4.130;2023-05-10T07:01:04;14.57;;;2.33;;
49764;SDS011;35657;51.204;-4.130;2023-05-10T07:03:30;12.32;;;2.50;;
49764;SDS011;35657;51.204;-4.130;2023-05-10T07:06:00;21.77;;;4.28;;
49764;SDS011;35657;51.204;-4.130;2023-05-10T07:08:28;17.50;;;3.15;;
49764;SDS011;35657;51.204;-4.130;2023-05-10T07:10:59;25.17;;;3.60;;
49764;SDS011;35657;51.204;-4.130;2023-05-10T07:13:31;13.73;;;2.33;;
49764;SDS011;35657;51.204;-4.130;2023-05-10T07:15:57;12.98;;;2.70;;
49764;SDS011;35657;51.204;-4.130;2023-05-10T07:18:24;20.90;;;3.70;;
49764;SDS011;35657;51.204;-4.130;2023-05-10T07:20:50;16.38;;;2.63;;
49764;SDS011;35657;51.204;-4.130;2023-05-10T07:23:16;14.82;;;2.85;;
49764;SDS011;35657;51.204;-4.130;2023-05-10T07:25:48;13.32;;;2.55;;
49764;SDS011;35657;51.204;-4.130;2023-05-10T07:28:17;15.43;;;2.60;;
49764;SDS011;35657;51.204;-4.130;2023-05-10T07:30:43;26.38;;;4.45;;
49764;SDS011;35657;51.204;-4.130;2023-05-10T07:33:09;17.98;;;3.05;;
49764;SDS011;35657;51.204;-4.130;2023-05-10T07:35:37;18.00;;;2.85;;
49764;SDS011;35657;51.204;-4.130;2023-05-10T07:38:02;15.32;;;3.17;;
49764;SDS011;35657;51.204;-4.130;2023-05-10T07:40:28;9.27;;;2.38;;
49764;SDS011;35657;51.204;-4.130;2023-05-10T07:42:54;13.27;;;2.08;;
49764;SDS011;35657;51.204;-4.130;2023-05-10T07:45:20;9.73;;;2.10;;
49764;SDS011;35657;51.204;-4.130;2023-05-10T07:47:46;11.55;;;2.05;;
49764;SDS011;35657;51.204;-4.130;2023-05-10T07:50:11;20.05;;;3.33;;
49764;SDS011;35657;51.204;-4.130;2023-05-10T07:52:37;12.38;;;1.77;;
49764;SDS011;35657;51.204;-4.130;2023-05-10T07:55:03;10.07;;;1.50;;
49764;SDS011;35657;51.204;-4.130;2023-05-10T07:57:29;7.35;;;2.88;;
49764;SDS011;35657;51.204;-4.130;2023-05-10T07:59:55;13.00;;;2.72;;
49764;SDS011;35657;51.204;-4.130;2023-05-10T08:02:21;24.70;;;3.70;;
49764;SDS011;35657;51.204;-4.130;2023-05-10T08:04:47;6.07;;;1.80;;
49764;SDS011;35657;51.204;-4.130;2023-05-10T08:07:12;18.95;;;2.40;;
49764;SDS011;35657;51.204;-4.130;2023-05-10T08:09:39;7.88;;;1.77;;
49764;SDS011;35657;51.204;-4.130;2023-05-10T08:12:05;5.30;;;1.27;;
49764;SDS011;35657;51.204;-4.130;2023-05-10T08:14:32;8.07;;;1.85;;
49764;SDS011;35657;51.204;-4.130;2023-05-10T08:16:57;14.52;;;2.83;;
49764;SDS011;35657;51.204;-4.130;2023-05-10T08:19:23;15.48;;;3.53;;
49764;SDS011;35657;51.204;-4.130;2023-05-10T08:21:49;8.63;;;2.90;;
49764;SDS011;35657;51.204;-4.130;2023-05-10T08:24:14;15.13;;;3.78;;
49764;SDS011;35657;51.204;-4.130;2023-05-10T08:26:40;13.30;;;2.83;;
49764;SDS011;35657;51.204;-4.130;2023-05-10T08:29:06;13.68;;;2.58;;
49764;SDS011;35657;51.204;-4.130;2023-05-10T08:31:31;17.55;;;2.85;;
49764;SDS011;35657;51.204;-4.130;2023-05-10T08:33:57;7.32;;;1.40;;
49764;SDS011;35657;51.204;-4.130;2023-05-10T08:36:23;16.67;;;2.20;;
49764;SDS011;35657;51.204;-4.130;2023-05-10T08:38:52;14.00;;;2.20;;
49764;SDS011;35657;51.204;-4.130;2023-05-10T08:41:22;15.07;;;2.30;;
49764;SDS011;35657;51.204;-4.130;2023-05-10T08:43:54;12.52;;;2.67;;
49764;SDS011;35657;51.204;-4.130;2023-05-10T08:46:20;18.40;;;2.13;;
49764;SDS011;35657;51.204;-4.130;2023-05-10T08:48:49;10.05;;;2.67;;
49764;SDS011;35657;51.204;-4.130;2023-05-10T08:51:20;7.38;;;1.77;;
49764;SDS011;35657;51.204;-4.130;2023-05-10T08:53:51;13.10;;;3.55;;
49764;SDS011;35657;51.204;-4.130;2023-05-10T08:56:17;14.75;;;4.03;;
49764;SDS011;35657;51.204;-4.130;2023-05-10T08:58:44;16.35;;;2.83;;
49764;SDS011;35657;51.204;-4.130;2023-05-10T09:01:10;10.93;;;2.78;;
49764;SDS011;35657;51.204;-4.130;2023-05-10T09:03:38;9.18;;;2.13;;
49764;SDS011;35657;51.204;-4.130;2023-05-10T09:06:04;10.23;;;2.78;;
49764;SDS011;35657;51.204;-4.130;2023-05-10T09:08:30;12.85;;;3.45;;
49764;SDS011;35657;51.204;-4.130;2023-05-10T09:10:56;7.70;;;1.77;;
49764;SDS011;35657;51.204;-4.130;2023-05-10T09:13:22;12.57;;;2.40;;
49764;SDS011;35657;51.204;-4.130;2023-05-10T09:15:49;13.40;;;2.15;;
49764;SDS011;35657;51.204;-4.130;2023-05-10T09:18:17;15.77;;;3.22;;
49764;SDS011;35657;51.204;-4.130;2023-05-10T09:20:42;16.70;;;2.60;;
49764;SDS011;35657;51.204;-4.130;2023-05-10T09:23:08;10.38;;;2.78;;
49764;SDS011;35657;51.204;-4.130;2023-05-10T09:25:34;6.82;;;1.38;;
49764;SDS011;35657;51.204;-4.130;2023-05-10T09:28:00;4.57;;;1.33;;
49764;SDS011;35657;51.204;-4.130;2023-05-10T09:30:26;13.30;;;2.58;;
49764;SDS011;35657;51.204;-4.130;2023-05-10T09:32:56;9.90;;;1.50;;
49764;SDS011;35657;51.204;-4.130;2023-05-10T09:35:24;6.13;;;1.90;;
49764;SDS011;35657;51.204;-4.130;2023-05-10T09:37:52;10.25;;;2.08;;
49764;SDS011;35657;51.204;-4.130;2023-05-10T09:40:20;10.90;;;1.90;;
49764;SDS011;35657;51.204;-4.130;2023-05-10T09:45:19;10.57;;;2.78;;
49764;SDS011;35657;51.204;-4.130;2023-05-10T09:47:46;4.80;;;1.20;;
49764;SDS011;35657;51.204;-4.130;2023-05-10T09:50:12;10.13;;;2.50;;
49764;SDS011;35657;51.204;-4.130;2023-05-10T09:52:50;11.10;;;2.90;;
49764;SDS011;35657;51.204;-4.130;2023-05-10T09:55:19;13.30;;;2.20;;
49764;SDS011;35657;51.204;-4.130;2023-05-10T09:57:46;9.55;;;1.90;;
49764;SDS011;35657;51.204;-4.130;2023-05-10T10:00:19;22.27;;;3.58;;
49764;SDS011;35657;51.204;-4.130;2023-05-10T10:02:48;13.30;;;2.38;;
49764;SDS011;35657;51.204;-4.130;2023-05-10T10:05:20;5.68;;;2.00;;
49764;SDS011;35657;51.204;-4.130;2023-05-10T10:07:46;19.23;;;2.38;;
49764;SDS011;35657;51.204;-4.130;2023-05-10T10:10:12;13.63;;;2.92;;
49764;SDS011;35657;51.204;-4.130;2023-05-10T10:12:38;4.32;;;1.35;;
49764;SDS011;35657;51.204;-4.130;2023-05-10T10:15:06;5.93;;;1.08;;
49764;SDS011;35657;51.204;-4.130;2023-05-10T10:17:33;17.05;;;2.60;;
49764;SDS011;35657;51.204;-4.130;2023-05-10T10:20:02;6.63;;;1.70;;
49764;SDS011;35657;51.204;-4.130;2023-05-10T10:22:28;10.27;;;2.97;;
49764;SDS011;35657;51.204;-4.130;2023-05-10T10:24:54;12.82;;;1.35;;
49764;SDS011;35657;51.204;-4.130;2023-05-10T10:27:24;7.80;;;1.67;;
49764;SDS011;35657;51.204;-4.130;2023-05-10T10:35:29;9.10;;;2.67;;
49764;SDS011;35657;51.204;-4.130;2023-05-10T10:37:56;6.10;;;1.75;;
49764;SDS011;35657;51.204;-4.130;2023-05-10T10:40:25;19.33;;;2.03;;
49764;SDS011;35657;51.204;-4.130;2023-05-10T10:42:55;7.82;;;2.33;;
49764;SDS011;35657;51.204;-4.130;2023-05-10T10:45:22;11.43;;;1.92;;
49764;SDS011;35657;51.204;-4.130;2023-05-10T10:47:48;11.55;;;3.00;;
49764;SDS011;35657;51.204;-4.130;2023-05-10T10:50:18;9.40;;;2.10;;
49764;SDS011;35657;51.204;-4.130;2023-05-10T10:52:44;11.65;;;2.40;;
49764;SDS011;35657;51.204;-4.130;2023-05-10T11:02:45;3.60;;;1.08;;
49764;SDS011;35657;51.204;-4.130;2023-05-10T11:07:57;5.65;;;1.48;;
49764;SDS011;35657;51.204;-4.130;2023-05-10T11:10:25;4.05;;;2.28;;
49764;SDS011;35657;51.204;-4.130;2023-05-10T11:13:00;3.90;;;1.13;;
49764;SDS011;35657;51.204;-4.130;2023-05-10T11:15:30;4.80;;;1.27;;
49764;SDS011;35657;51.204;-4.130;2023-05-10T11:18:00;8.48;;;1.75;;
49764;SDS011;35657;51.204;-4.130;2023-05-10T11:20:42;5.03;;;1.73;;
49764;SDS011;35657;51.204;-4.130;2023-05-10T11:23:11;7.93;;;1.60;;
49764;SDS011;35657;51.204;-4.130;2023-05-10T11:25:41;7.57;;;1.88;;
49764;SDS011;35657;51.204;-4.130;2023-05-10T11:28:08;6.82;;;2.30;;
49764;SDS011;35657;51.204;-4.130;2023-05-10T11:30:35;6.57;;;1.67;;
49764;SDS011;35657;51.204;-4.130;2023-05-10T11:33:01;10.55;;;1.90;;
49764;SDS011;35657;51.204;-4.130;2023-05-10T11:35:27;5.35;;;1.60;;
49764;SDS011;35657;51.204;-4.130;2023-05-10T11:37:53;4.80;;;1.65;;
49764;SDS011;35657;51.204;-4.130;2023-05-10T11:40:21;6.90;;;1.23;;
49764;SDS011;35657;51.204;-4.130;2023-05-10T11:42:49;2.33;;;1.25;;
49764;SDS011;35657;51.204;-4.130;2023-05-10T11:45:15;3.40;;;0.80;;
49764;SDS011;35657;51.204;-4.130;2023-05-10T11:47:41;8.45;;;1.67;;
49764;SDS011;35657;51.204;-4.130;2023-05-10T11:50:08;7.20;;;1.83;;
49764;SDS011;35657;51.204;-4.130;2023-05-10T11:52:36;7.60;;;1.52;;
49764;SDS011;35657;51.204;-4.130;2023-05-10T11:55:04;5.07;;;1.42;;
49764;SDS011;35657;51.204;-4.130;2023-05-10T11:57:30;10.85;;;1.73;;
49764;SDS011;35657;51.204;-4.130;2023-05-10T11:59:56;5.38;;;1.10;;
49764;SDS011;35657;51.204;-4.130;2023-05-10T12:02:22;5.25;;;1.23;;
49764;SDS011;35657;51.204;-4.130;2023-05-10T12:04:48;7.35;;;1.35;;
49764;SDS011;35657;51.204;-4.130;2023-05-10T12:07:15;4.38;;;1.13;;
49764;SDS011;35657;51.204;-4.130;2023-05-10T12:09:44;10.40;;;2.20;;
49764;SDS011;35657;51.204;-4.130;2023-05-10T12:12:27;5.43;;;1.30;;
49764;SDS011;35657;51.204;-4.130;2023-05-10T12:14:59;4.38;;;1.17;;
49764;SDS011;35657;51.204;-4.130;2023-05-10T12:17:28;5.03;;;1.35;;
49764;SDS011;35657;51.204;-4.130;2023-05-10T12:19:58;6.47;;;1.40;;
49764;SDS011;35657;51.204;-4.130;2023-05-10T12:22:37;8.40;;;1.77;;
49764;SDS011;35657;51.204;-4.130;2023-05-10T12:25:03;7.53;;;1.40;;
49764;SDS011;35657;51.204;-4.130;2023-05-10T12:27:31;5.65;;;2.15;;
49764;SDS011;35657;51.204;-4.130;2023-05-10T12:29:58;6.95;;;1.73;;
49764;SDS011;35657;51.204;-4.130;2023-05-10T12:32:37;4.13;;;1.30;;
49764;SDS011;35657;51.204;-4.130;2023-05-10T12:35:06;6.65;;;1.48;;
49764;SDS011;35657;51.204;-4.130;2023-05-10T12:37:32;7.10;;;1.42;;
49764;SDS011;35657;51.204;-4.130;2023-05-10T12:40:03;8.70;;;1.25;;
49764;SDS011;35657;51.204;-4.130;2023-05-10T12:42:34;2.20;;;0.80;;
49764;SDS011;35657;51.204;-4.130;2023-05-10T12:45:01;7.18;;;1.55;;
49764;SDS011;35657;51.204;-4.130;2023-05-10T12:47:27;3.70;;;1.02;;
49764;SDS011;35657;51.204;-4.130;2023-05-10T12:49:53;4.93;;;0.82;;
49764;SDS011;35657;51.204;-4.130;2023-05-10T12:52:18;5.43;;;2.00;;
49764;SDS011;35657;51.204;-4.130;2023-05-10T12:54:44;8.80;;;0.90;;
49764;SDS011;35657;51.204;-4.130;2023-05-10T12:57:10;7.13;;;1.45;;
49764;SDS011;35657;51.204;-4.130;2023-05-10T12:59:36;8.35;;;1.95;;
49764;SDS011;35657;51.204;-4.130;2023-05-10T13:02:02;2.35;;;0.90;;
49764;SDS011;35657;51.204;-4.130;2023-05-10T13:04:27;3.63;;;0.95;;
49764;SDS011;35657;51.204;-4.130;2023-05-10T13:06:53;8.45;;;1.25;;
49764;SDS011;35657;51.204;-4.130;2023-05-10T13:09:23;9.48;;;2.20;;
49764;SDS011;35657;51.204;-4.130;2023-05-10T13:11:49;3.90;;;1.27;;
49764;SDS011;35657;51.204;-4.130;2023-05-10T13:14:16;7.97;;;1.48;;
49764;SDS011;35657;51.204;-4.130;2023-05-10T13:16:41;5.60;;;1.75;;
49764;SDS011;35657;51.204;-4.130;2023-05-10T13:19:07;5.95;;;1.13;;
49764;SDS011;35657;51.204;-4.130;2023-05-10T13:21:33;10.82;;;1.65;;
49764;SDS011;35657;51.204;-4.130;2023-05-10T13:23:58;7.70;;;1.20;;
49764;SDS011;35657;51.204;-4.130;2023-05-10T13:26:25;6.13;;;1.63;;
49764;SDS011;35657;51.204;-4.130;2023-05-10T13:28:51;9.98;;;2.38;;
49764;SDS011;35657;51.204;-4.130;2023-05-10T13:31:16;10.35;;;1.65;;
49764;SDS011;35657;51.204;-4.130;2023-05-10T13:33:42;9.63;;;1.70;;
49764;SDS011;35657;51.204;-4.130;2023-05-10T13:36:08;7.72;;;1.10;;
49764;SDS011;35657;51.204;-4.130;2023-05-10T13:38:34;4.93;;;1.13;;
49764;SDS011;35657;51.204;-4.130;2023-05-10T13:40:59;5.57;;;1.15;;
49764;SDS011;35657;51.204;-4.130;2023-05-10T13:43:25;10.02;;;1.33;;
49764;SDS011;35657;51.204;-4.130;2023-05-10T13:45:51;8.82;;;2.05;;
49764;SDS011;35657;51.204;-4.130;2023-05-10T13:48:17;4.47;;;1.30;;
49764;SDS011;35657;51.204;-4.130;2023-05-10T13:50:42;4.90;;;1.08;;
49764;SDS011;35657;51.204;-4.130;2023-05-10T13:53:08;8.73;;;1.48;;
49764;SDS011;35657;51.204;-4.130;2023-05-10T13:55:34;4.80;;;1.50;;
49764;SDS011;35657;51.204;-4.130;2023-05-10T13:58:00;5.38;;;1.30;;
49764;SDS011;35657;51.204;-4.130;2023-05-10T14:00:26;8.95;;;1.70;;
49764;SDS011;35657;51.204;-4.130;2023-05-10T14:02:52;5.25;;;1.50;;
49764;SDS011;35657;51.204;-4.130;2023-05-10T14:05:18;9.43;;;1.83;;
49764;SDS011;35657;51.204;-4.130;2023-05-10T14:07:44;5.47;;;1.60;;
49764;SDS011;35657;51.204;-4.130;2023-05-10T14:10:09;6.68;;;1.58;;
49764;SDS011;35657;51.204;-4.130;2023-05-10T14:12:35;12.55;;;2.03;;
49764;SDS011;35657;51.204;-4.130;2023-05-10T14:15:01;7.63;;;1.70;;
49764;SDS011;35657;51.204;-4.130;2023-05-10T14:17:27;9.30;;;1.40;;
49764;SDS011;35657;51.204;-4.130;2023-05-10T14:19:53;9.95;;;2.83;;
49764;SDS011;35657;51.204;-4.130;2023-05-10T14:22:19;7.47;;;1.33;;
49764;SDS011;35657;51.204;-4.130;2023-05-10T14:24:45;8.18;;;1.45;;
49764;SDS011;35657;51.204;-4.130;2023-05-10T14:27:12;5.90;;;1.40;;
49764;SDS011;35657;51.204;-4.130;2023-05-10T14:29:38;8.18;;;1.63;;
49764;SDS011;35657;51.204;-4.130;2023-05-10T14:32:03;2.88;;;0.85;;
49764;SDS011;35657;51.204;-4.130;2023-05-10T14:34:29;4.90;;;1.10;;
49764;SDS011;35657;51.204;-4.130;2023-05-10T14:36:55;8.93;;;2.25;;
49764;SDS011;35657;51.204;-4.130;2023-05-10T14:39:20;11.38;;;1.40;;
49764;SDS011;35657;51.204;-4.130;2023-05-10T14:41:47;7.95;;;2.03;;
49764;SDS011;35657;51.204;-4.130;2023-05-10T14:44:13;8.82;;;2.65;;
49764;SDS011;35657;51.204;-4.130;2023-05-10T14:46:40;7.35;;;1.73;;
49764;SDS011;35657;51.204;-4.130;2023-05-10T14:49:06;4.68;;;1.50;;
49764;SDS011;35657;51.204;-4.130;2023-05-10T14:51:32;10.80;;;2.25;;
49764;SDS011;35657;51.204;-4.130;2023-05-10T14:53:58;6.60;;;1.75;;
49764;SDS011;35657;51.204;-4.130;2023-05-10T14:56:24;1.77;;;1.35;;
49764;SDS011;35657;51.204;-4.130;2023-05-10T14:58:51;4.63;;;1.90;;
49764;SDS011;35657;51.204;-4.130;2023-05-10T15:01:17;5.15;;;1.55;;